WetterOnline ( https://www.wetteronline.de )

Wetter aktuell Ostrohe

Aktuelles Wetter: Heide/Elpersbüttel (5m)

6-stündlich | Neueste Meldungen
Ortszeit Temperatur Wetter
So, 20.06. 20:00 16.8° C leicht bewölkt
So, 20.06. 14:00 21.3° C bedeckt
So, 20.06. 8:00 18.5° C leichter Regen
So, 20.06. 2:00 15.4° C wolkig
Sa, 19.06. 20:00 18.3° C wolkig
Sa, 19.06. 14:00 22.3° C fast wolkenlos
Sa, 19.06. 8:00 22.9° C wolkenlos
Sa, 19.06. 2:00 20.3° C wolkig
Ortszeit Temperatur Wetter
Mo, 21.06. 1:00 13.5° C wolkig
Mo, 21.06. 0:30 13.1° C wolkig
Mo, 21.06. 0:20 13.1° C wolkig
Mo, 21.06. 0:10 13.1° C bewölkt
Mo, 21.06. 0:00 13.3° C wolkig
So, 20.06. 23:50 13.3° C wolkig
So, 20.06. 23:30 13.5° C leicht bewölkt
So, 20.06. 23:00 13.7° C wolkenlos
Ortszeit Relative Feuchte Sichtweite
So, 20.06. 20:00 79% 65 km
So, 20.06. 14:00 78% 50 km
So, 20.06. 8:00 98% 4.7 km
So, 20.06. 2:00 96% 9 km
Sa, 19.06. 20:00 86% 27 km
Sa, 19.06. 14:00 77% 40 km
Sa, 19.06. 8:00 81% 29 km
Sa, 19.06. 2:00 86% 35 km
Ortszeit Relative Feuchte Sichtweite
Mo, 21.06. 1:00 92% 45 km
Mo, 21.06. 0:30 93% 35 km
Mo, 21.06. 0:20 93% -
Mo, 21.06. 0:10 93% -
Mo, 21.06. 0:00 93% 40 km
So, 20.06. 23:50 93% -
So, 20.06. 23:30 93% 40 km
So, 20.06. 23:00 92% 12 km
Ortszeit Niederschlagsmenge Niederschlagsart
So, 20.06. 20:00 0.5 l/m2 in 12 Std. -
So, 20.06. 14:00 0.5 l/m2 in 6 Std. Regen
So, 20.06. 8:00 6 l/m2 in 12 Std. Regen
So, 20.06. 2:00 0.0 l/m2 in 6 Std. -
Sa, 19.06. 20:00 0.0 l/m2 in 12 Std. -
Sa, 19.06. 14:00 0.0 l/m2 in 6 Std. -
Sa, 19.06. 8:00 0.1 l/m2 in 12 Std. -
Sa, 19.06. 2:00 0.1 l/m2 in 6 Std. Regen
Ortszeit Niederschlagsmenge Niederschlagsart
Mo, 21.06. 1:00 keine Meldung -
Mo, 21.06. 0:30 0.0 l/m2 in 1 Std. -
Mo, 21.06. 0:20 keine Meldung -
Mo, 21.06. 0:10 keine Meldung -
Mo, 21.06. 0:00 0.0 l/m2 in 1 Std. -
So, 20.06. 23:50 keine Meldung -
So, 20.06. 23:30 0.0 l/m2 in 1 Std. -
So, 20.06. 23:00 0.0 l/m2 in 1 Std. -
Ortszeit Stärke Spitze Richtung
km/h Bft. km/h Grad Sektor
So, 20.06. 20:00 17 3 54 290° W
So, 20.06. 14:00 35 5 50 230° SW
So, 20.06. 8:00 4 1 36 10° N
So, 20.06. 2:00 7 2 29 30° NO
Sa, 19.06. 20:00 20 4 31 300° NW
Sa, 19.06. 14:00 22 4 47 280° W
Sa, 19.06. 8:00 17 3 22 200° S
Sa, 19.06. 2:00 13 3 50 10° N
Ortszeit Stärke Spitze Richtung
km/h Bft. km/h Grad Sektor
Mo, 21.06. 1:00 15 3 20 350° N
Mo, 21.06. 0:30 11 2 14 350° N
Mo, 21.06. 0:20 11 2 - 350° N
Mo, 21.06. 0:10 11 2 - 340° N
Mo, 21.06. 0:00 11 2 14 350° N
So, 20.06. 23:50 11 2 - 350° N
So, 20.06. 23:30 7 2 11 10° N
So, 20.06. 23:00 4 1 18 350° N
Ortszeit Untergrenze Bedeckung Gattung
total tief tief mittel hoch
So, 20.06. 20:00 7800 m 6/8 0/8 - - -
So, 20.06. 14:00 600 m 8/8 8/8 - - -
So, 20.06. 8:00 30 m 7/8 7/8 - - -
So, 20.06. 2:00 450 m 7/8 4/8 - - -
Sa, 19.06. 20:00 360 m 6/8 6/8 - - -
Sa, 19.06. 14:00 10500 m 2/8 0/8 - - -
Sa, 19.06. 8:00 - 0/8 0/8 - - -
Sa, 19.06. 2:00 2400 m 7/8 1/8 - - -
Ortszeit Bedeckungsgrad in Achtel und Wolkenuntergrenze
Mo, 21.06. 1:00 3(390m) 7(9000m)
Mo, 21.06. 0:30 2(6900m) 7(8400m) 7(9000m)
Mo, 21.06. 0:20 2(6900m) 7(8400m) 7(9000m)
Mo, 21.06. 0:10 4(6900m) 6(8700m) 8(10500m)
Mo, 21.06. 0:00 1(450m) 7(7200m) 7(8700m)
So, 20.06. 23:50 1(450m) 7(7200m) 7(8700m)
So, 20.06. 23:30 1(450m) 5(7800m) 7(8100m)
So, 20.06. 23:00 keine Wolken
Ortszeit Luftdruck NN (hPa) Tendenz (hPa in 3 Std.)
So, 20.06. 20:00 1010 + 0,7
So, 20.06. 14:00 1007 + 1,7
So, 20.06. 8:00 1007 - 1,6
So, 20.06. 2:00 1012 - 1,3
Sa, 19.06. 20:00 1014 + 0,3
Sa, 19.06. 14:00 1014 + 0,4
Sa, 19.06. 8:00 1012 + 1,0
Sa, 19.06. 2:00 1012 + 0,3
Ortszeit Luftdruck NN (hPa) Tendenz (hPa in 3 Std.)
Mo, 21.06. 1:00 1010 + 0,2
Mo, 21.06. 0:30 1010 + 0,5
Mo, 21.06. 0:20 1010 keine Meldung
Mo, 21.06. 0:10 1011 keine Meldung
Mo, 21.06. 0:00 1011 + 1,3
So, 20.06. 23:50 1011 keine Meldung
So, 20.06. 23:30 1011 + 0,7
So, 20.06. 23:00 1011 + 0,7
Ortszeit Schneehöhe (cm)
So, 20.06. 20:00 -
So, 20.06. 14:00 -
So, 20.06. 8:00 -
So, 20.06. 2:00 -
Sa, 19.06. 20:00 -
Sa, 19.06. 14:00 -
Sa, 19.06. 8:00 -
Sa, 19.06. 2:00 -
Ortszeit Schneehöhe (cm)
Mo, 21.06. 1:00 -
Mo, 21.06. 0:30 -
Mo, 21.06. 0:20 -
Mo, 21.06. 0:10 -
Mo, 21.06. 0:00 -
So, 20.06. 23:50 -
So, 20.06. 23:30 -
So, 20.06. 23:00 -
Link zu dieser Seite / Seite empfehlen

Das Wetter in ...